Pagina principale
METAR-TAF:

METAR-TAF

Aeroporti :

Aeroporto di Rivolto

Udine, Italia

latitudine: 45-59N, longitudine: 013-02E, altezza: 51 m

Osservazione

Il bollettino è stato emesso 15 ore e 58 minuti fa, alle 10:55 UTC
Vento 2 kt da sud
Temperature 18°C
Umidità 34%
Pressione 1028 hPa
Visibilità 10 km o più
nessuna nube inferiore a 1500 m e nessun cumulonembo

METAR: LIPI 261055Z 18002KT CAVOK 18/02 Q1028 RMK SKC VIS MIN 9999 WIND THR06 VRB02KT WIND THR24 VRB01KT BLU

Ora: 03:53 (02:53 UTC)

Previsione

Il bollettino è stato emesso 18 ore e 53 minuti fa, alle 08:00 UTC
Previsione valida dal 26 alle 08 UTC al 26 alle 18 UTC
Vento 3 kt da direzioni variabili
Visibilità 10 km o più
nessuna nube inferiore a 1500 m e nessun cumulonembo

TAF: LIPI 260800Z 2608/2618 VRB03KT CAVOK

Osservazioni e previsioni meteorologiche di più di 4000 aeroporti (messaggi METAR e TAF).

Le stazioni disponibili sono rappresentate dai dischi gialli e rossi sulla carta.

Puntare il mouse per vedere il nome della stazione.

Clicca sopra per visualizzare le osservazioni e previsioni meteorologiche.

Per cambiare la mappa : fare clic sui pulsanti verdi con una croce nera per ingrandire, il pulsante verde con un trattino per diminuire, o sulla freccia verde per le mappe adiacenti.


METAR-TAF: